createdAt,value
2022-09-12T00:01:22.357Z,99.90
2022-09-12T00:03:55.337Z,99.90
2022-09-12T00:06:28.193Z,99.90
2022-09-12T00:08:57.198Z,99.90
2022-09-12T00:11:26.856Z,99.90
2022-09-12T00:14:01.472Z,99.90
2022-09-12T00:16:36.963Z,99.90
2022-09-12T00:19:07.991Z,97.60
2022-09-12T00:21:36.038Z,83.80
2022-09-12T00:24:03.238Z,65.00
2022-09-12T00:26:30.340Z,80.60
2022-09-12T00:28:57.377Z,72.50
2022-09-12T00:31:26.538Z,50.40
2022-09-12T00:33:55.915Z,55.80
2022-09-12T00:36:27.696Z,1.00
2022-09-12T00:38:54.801Z,99.90
2022-09-12T00:41:39.067Z,1.00
2022-09-12T00:44:26.923Z,1.00
2022-09-12T00:47:01.334Z,1.00
2022-09-12T00:49:34.010Z,1.00
2022-09-12T00:52:07.088Z,1.00
2022-09-12T00:54:39.395Z,1.00
2022-09-12T00:57:10.041Z,1.00
2022-09-12T01:00:12.129Z,1.00
2022-09-12T01:02:39.069Z,99.90
2022-09-12T01:05:10.295Z,99.90
2022-09-12T01:07:42.905Z,99.90
2022-09-12T01:10:10.443Z,99.90
2022-09-12T01:12:41.051Z,99.90
2022-09-12T01:15:08.299Z,99.90
2022-09-12T01:18:19.081Z,99.90
2022-09-12T01:21:06.388Z,1.00
2022-09-12T01:23:57.911Z,8.20
2022-09-12T01:26:37.102Z,1.00
2022-09-12T01:29:38.665Z,1.00
2022-09-12T01:32:33.173Z,1.00
2022-09-12T01:35:24.886Z,1.00
2022-09-12T01:38:11.915Z,1.00
2022-09-12T01:40:38.770Z,1.00
2022-09-12T01:43:18.296Z,99.90
2022-09-12T01:46:19.898Z,99.90
2022-09-12T01:49:25.523Z,99.90
2022-09-12T01:52:31.926Z,13.90
2022-09-12T01:55:09.688Z,1.00
2022-09-12T01:57:44.954Z,1.00
2022-09-12T02:00:15.024Z,1.00
2022-09-12T02:03:16.307Z,1.00
2022-09-12T02:05:49.565Z,1.00
2022-09-12T02:08:33.859Z,1.00
2022-09-12T02:11:19.531Z,1.00
2022-09-12T02:14:13.667Z,1.00
2022-09-12T02:16:45.986Z,1.00
2022-09-12T02:19:34.847Z,1.00
2022-09-12T02:22:16.861Z,99.90
2022-09-12T02:24:48.861Z,1.00
2022-09-12T02:27:21.063Z,1.00
2022-09-12T02:29:57.522Z,1.00
2022-09-12T02:32:34.258Z,99.90
2022-09-12T02:35:27.607Z,1.00
2022-09-12T02:38:05.360Z,1.00
2022-09-12T02:40:36.371Z,99.90
2022-09-12T02:43:06.963Z,99.90
2022-09-12T02:45:35.029Z,1.00
2022-09-12T02:48:22.066Z,99.90
2022-09-12T02:50:49.038Z,1.00
2022-09-12T02:53:17.802Z,1.00
2022-09-12T02:55:44.826Z,16.20
2022-09-12T02:58:15.041Z,1.00
2022-09-12T03:00:57.999Z,99.90
2022-09-12T03:03:49.780Z,1.00
2022-09-12T03:06:39.637Z,99.90
2022-09-12T03:09:41.161Z,99.90
2022-09-12T03:12:47.740Z,87.20
2022-09-12T03:15:43.819Z,1.00
2022-09-12T03:18:32.608Z,41.70
2022-09-12T03:21:14.160Z,99.90
2022-09-12T03:24:04.468Z,1.00
2022-09-12T03:26:49.012Z,99.90
2022-09-12T03:29:17.019Z,99.90
2022-09-12T03:31:58.492Z,46.80
2022-09-12T03:34:27.240Z,99.90
2022-09-12T03:36:57.495Z,1.00
2022-09-12T03:39:27.121Z,1.00
2022-09-12T03:41:55.096Z,8.50
2022-09-12T03:44:22.178Z,1.00
2022-09-12T03:46:49.024Z,99.90
2022-09-12T03:49:16.001Z,1.00
2022-09-12T03:51:43.515Z,1.00
2022-09-12T03:54:13.500Z,99.90
2022-09-12T03:56:41.235Z,99.90
2022-09-12T03:59:08.206Z,99.90
2022-09-12T04:01:35.335Z,1.00
2022-09-12T04:04:02.283Z,1.00
2022-09-12T04:06:29.788Z,1.00
2022-09-12T04:08:57.141Z,99.90
2022-09-12T04:11:26.668Z,1.00
2022-09-12T04:13:53.710Z,99.90
2022-09-12T04:16:25.271Z,1.00
2022-09-12T04:18:52.094Z,99.90
2022-09-12T04:21:19.866Z,99.90
2022-09-12T04:23:46.769Z,99.90
2022-09-12T04:26:15.581Z,99.90
2022-09-12T04:28:42.434Z,1.00
2022-09-12T04:31:22.679Z,99.90
2022-09-12T04:33:56.740Z,99.90
2022-09-12T04:36:24.752Z,99.90
2022-09-12T04:38:51.959Z,1.00
2022-09-12T04:41:24.214Z,1.00
2022-09-12T04:44:01.816Z,99.90
2022-09-12T04:46:33.624Z,99.90
2022-09-12T04:49:00.517Z,1.00
2022-09-12T04:51:33.800Z,1.00
2022-09-12T04:54:09.467Z,1.00
2022-09-12T04:56:45.319Z,1.00
2022-09-12T04:59:14.237Z,1.00
2022-09-12T05:01:41.426Z,99.90
2022-09-12T05:04:10.264Z,1.00
2022-09-12T05:06:41.533Z,3.70
2022-09-12T05:09:11.649Z,99.90
2022-09-12T05:14:33.338Z,99.90
2022-09-12T05:17:01.785Z,93.00
2022-09-12T05:19:30.457Z,99.90
2022-09-12T05:22:01.745Z,99.90
2022-09-12T05:24:28.793Z,1.00
2022-09-12T05:26:55.552Z,99.90
2022-09-12T05:29:22.377Z,1.00
2022-09-12T05:31:52.109Z,99.90
2022-09-12T05:34:19.797Z,99.90
2022-09-12T05:36:49.811Z,99.90
2022-09-12T05:39:16.629Z,99.90
2022-09-12T05:41:43.461Z,99.90
2022-09-12T05:44:14.824Z,99.90
2022-09-12T05:46:43.980Z,1.00
2022-09-12T05:49:13.147Z,99.90
2022-09-12T05:51:45.063Z,45.10
2022-09-12T05:54:15.696Z,1.00
2022-09-12T05:56:44.199Z,1.00
2022-09-12T05:59:16.662Z,99.90
2022-09-12T06:01:43.764Z,1.00
2022-09-12T06:04:11.021Z,67.10
2022-09-12T06:06:41.678Z,21.80
2022-09-12T06:09:11.703Z,1.00
2022-09-12T06:11:41.212Z,6.70
2022-09-12T06:14:09.932Z,99.90
2022-09-12T06:16:40.100Z,99.90
2022-09-12T06:19:30.983Z,99.90
2022-09-12T06:21:57.833Z,99.90
2022-09-12T06:24:24.591Z,99.90
2022-09-12T06:26:52.885Z,99.90
2022-09-12T06:29:19.909Z,99.90
2022-09-12T06:31:49.649Z,99.90
2022-09-12T06:34:20.570Z,99.90
2022-09-12T06:36:50.789Z,99.90
2022-09-12T06:39:19.626Z,1.00
2022-09-12T06:41:47.268Z,1.00
2022-09-12T06:44:20.940Z,1.00
2022-09-12T06:46:48.346Z,1.00
2022-09-12T06:49:15.560Z,1.00
2022-09-12T06:51:42.761Z,1.00
2022-09-12T06:54:12.848Z,1.00
2022-09-12T06:56:39.748Z,1.00
2022-09-12T06:59:06.890Z,1.00
2022-09-12T07:01:33.762Z,1.00
2022-09-12T07:04:03.209Z,1.00
2022-09-12T07:06:35.296Z,99.90
2022-09-12T07:09:04.100Z,99.90
2022-09-12T07:11:33.574Z,99.90
2022-09-12T07:14:02.225Z,99.90
2022-09-12T07:16:30.429Z,99.90
2022-09-12T07:18:59.748Z,1.00
2022-09-12T07:21:27.239Z,99.90
2022-09-12T07:23:58.221Z,1.00
2022-09-12T07:26:29.156Z,1.00
2022-09-12T07:29:08.294Z,1.00
2022-09-12T07:31:40.376Z,1.00
2022-09-12T07:34:07.320Z,1.00
2022-09-12T07:36:34.761Z,1.00
2022-09-12T07:39:01.664Z,1.00
2022-09-12T07:41:30.235Z,1.00
2022-09-12T07:43:58.430Z,1.00
2022-09-12T07:46:27.331Z,1.00
2022-09-12T07:48:55.441Z,1.00
2022-09-12T07:51:23.588Z,1.00
2022-09-12T07:53:51.708Z,1.00
2022-09-12T07:56:20.108Z,99.90
2022-09-12T07:58:47.356Z,99.90
2022-09-12T08:01:15.239Z,1.00
2022-09-12T08:03:43.709Z,1.00
2022-09-12T08:06:12.437Z,99.90
2022-09-12T08:08:39.690Z,99.90
2022-09-12T08:11:09.054Z,99.90
2022-09-12T08:13:37.262Z,99.90
2022-09-12T08:16:06.699Z,99.90
2022-09-12T08:18:35.614Z,99.90
2022-09-12T08:21:07.620Z,99.90
2022-09-12T08:23:34.588Z,72.60
2022-09-12T08:26:06.188Z,99.90
2022-09-12T08:28:34.630Z,55.60
2022-09-12T08:31:05.810Z,99.90
2022-09-12T08:33:33.674Z,1.00
2022-09-12T08:36:08.780Z,15.40
2022-09-12T08:38:37.208Z,7.60
2022-09-12T08:41:27.345Z,1.00
2022-09-12T08:44:03.035Z,1.00
2022-09-12T08:46:41.306Z,99.90
2022-09-12T08:49:13.906Z,99.90
2022-09-12T08:51:41.291Z,99.90
2022-09-12T08:54:20.492Z,99.90
2022-09-12T08:56:48.271Z,99.90
2022-09-12T08:59:15.633Z,99.90
2022-09-12T09:01:44.421Z,99.90
2022-09-12T09:04:45.244Z,99.90
2022-09-12T09:07:30.892Z,99.90
2022-09-12T09:10:07.972Z,99.90
2022-09-12T09:12:49.680Z,99.90
2022-09-12T09:15:37.869Z,43.00
2022-09-12T09:18:09.957Z,1.00
2022-09-12T09:20:49.690Z,1.00
2022-09-12T09:23:26.133Z,1.00
2022-09-12T09:25:52.857Z,99.90
2022-09-12T09:28:24.014Z,99.90
2022-09-12T09:30:51.125Z,1.00
2022-09-12T09:33:30.455Z,57.40
2022-09-12T09:36:14.073Z,99.90
2022-09-12T09:38:51.126Z,1.00
2022-09-12T09:41:20.888Z,1.00
2022-09-12T09:43:47.758Z,1.00
2022-09-12T09:46:15.255Z,1.00
2022-09-12T09:48:45.743Z,1.00
2022-09-12T09:51:14.047Z,99.90
2022-09-12T09:53:51.546Z,99.90
2022-09-12T09:56:36.705Z,99.90
2022-09-12T09:59:33.804Z,28.30
2022-09-12T10:02:24.040Z,1.00
2022-09-12T10:04:55.947Z,1.00
2022-09-12T10:07:23.226Z,1.00
2022-09-12T10:10:16.292Z,99.90
2022-09-12T10:12:43.415Z,99.90
2022-09-12T10:15:20.263Z,1.00
2022-09-12T10:17:49.547Z,99.90
2022-09-12T10:20:37.552Z,99.90
2022-09-12T10:23:19.197Z,99.90
2022-09-12T10:25:48.594Z,99.90
2022-09-12T10:28:41.007Z,99.90
2022-09-12T10:31:10.239Z,1.00
2022-09-12T10:33:43.437Z,1.00
2022-09-12T10:36:10.884Z,1.00
2022-09-12T10:38:37.835Z,1.00
2022-09-12T10:41:07.640Z,1.00
2022-09-12T10:43:34.458Z,1.00
2022-09-12T10:46:19.398Z,99.90
2022-09-12T10:48:51.001Z,99.90
2022-09-12T10:51:24.029Z,1.00
2022-09-12T10:53:52.691Z,1.00
2022-09-12T10:56:22.659Z,99.90
2022-09-12T10:58:55.625Z,99.90
2022-09-12T11:01:40.602Z,99.90
2022-09-12T11:04:21.197Z,99.90
2022-09-12T11:06:56.529Z,99.90
2022-09-12T11:09:39.028Z,99.90
2022-09-12T11:12:18.961Z,33.00
2022-09-12T11:14:56.270Z,1.00
2022-09-12T11:17:29.604Z,1.00
2022-09-12T11:20:34.914Z,1.00
2022-09-12T11:23:28.213Z,99.90
2022-09-12T11:26:19.038Z,1.00
2022-09-12T11:29:06.756Z,99.90
2022-09-12T11:31:52.689Z,1.00
2022-09-12T11:34:45.798Z,1.00
2022-09-12T11:37:27.968Z,1.00
2022-09-12T11:39:57.007Z,1.00
2022-09-12T11:42:30.015Z,1.00
2022-09-12T11:45:10.328Z,99.90
2022-09-12T11:47:37.516Z,99.90
2022-09-12T11:50:16.051Z,89.70
2022-09-12T11:52:42.776Z,1.00
2022-09-12T11:55:18.151Z,1.00
2022-09-12T11:57:56.502Z,1.00
2022-09-12T12:00:27.987Z,1.00
2022-09-12T12:03:07.041Z,1.00
2022-09-12T12:05:56.356Z,1.00
2022-09-12T12:08:24.716Z,99.90
2022-09-12T12:10:57.650Z,99.90
2022-09-12T12:13:30.868Z,1.00
2022-09-12T12:16:08.289Z,1.00
2022-09-12T12:18:38.168Z,1.00
2022-09-12T12:21:40.639Z,1.00
2022-09-12T12:24:07.340Z,99.90
2022-09-12T12:26:40.603Z,1.00
2022-09-12T12:29:18.114Z,1.00
2022-09-12T12:32:02.054Z,99.90
2022-09-12T12:34:34.037Z,99.90
2022-09-12T12:37:19.339Z,99.90
2022-09-12T12:39:47.906Z,99.90
2022-09-12T12:42:36.268Z,99.90
2022-09-12T12:45:09.160Z,1.00
2022-09-12T12:47:35.872Z,99.90
2022-09-12T12:50:12.722Z,99.90
2022-09-12T12:52:54.068Z,99.90
2022-09-12T12:55:26.424Z,99.90
2022-09-12T12:57:55.017Z,64.70
2022-09-12T13:00:24.805Z,99.90
2022-09-12T13:03:08.350Z,99.90
2022-09-12T13:06:01.571Z,20.90
2022-09-12T13:08:31.802Z,1.00
2022-09-12T13:11:28.565Z,1.00
2022-09-12T13:14:01.041Z,1.00
2022-09-12T13:16:52.311Z,1.00
2022-09-12T13:19:26.328Z,1.00
2022-09-12T13:22:03.242Z,1.00
2022-09-12T13:24:31.129Z,1.00
2022-09-12T13:26:57.960Z,1.00
2022-09-12T13:29:26.846Z,1.00
2022-09-12T13:32:03.193Z,1.00
2022-09-12T13:34:35.558Z,1.00
2022-09-12T13:37:08.400Z,1.00
2022-09-12T13:39:46.455Z,1.00
2022-09-12T13:42:22.079Z,1.00
2022-09-12T13:44:57.805Z,1.00
2022-09-12T13:47:36.510Z,1.00
2022-09-12T13:50:05.246Z,1.00
2022-09-12T13:52:34.158Z,1.00
2022-09-12T13:55:02.170Z,1.00
2022-09-12T13:57:36.406Z,1.00
2022-09-12T14:00:19.372Z,1.00
2022-09-12T14:02:49.539Z,1.00
2022-09-12T14:05:25.716Z,1.00
2022-09-12T14:07:56.841Z,1.00
2022-09-12T14:10:26.701Z,1.00
2022-09-12T14:12:55.270Z,1.00
2022-09-12T14:15:26.110Z,1.00
2022-09-12T14:17:55.704Z,99.90
2022-09-12T14:20:23.635Z,1.00
2022-09-12T14:22:51.402Z,99.90
2022-09-12T14:25:20.921Z,99.90
2022-09-12T14:27:54.354Z,99.90
2022-09-12T14:30:22.568Z,99.90
2022-09-12T14:33:10.680Z,99.90
2022-09-12T14:35:43.100Z,99.90
2022-09-12T14:38:16.519Z,99.90
2022-09-12T14:40:48.558Z,99.90
2022-09-12T14:43:26.531Z,99.90
2022-09-12T14:45:55.565Z,99.90
2022-09-12T14:48:22.601Z,99.90
2022-09-12T14:50:50.825Z,99.90
2022-09-12T14:53:17.657Z,99.90
2022-09-12T14:55:46.746Z,99.90
2022-09-12T14:58:26.682Z,99.90
2022-09-12T15:01:00.379Z,99.90
2022-09-12T15:03:34.887Z,99.90
2022-09-12T15:06:03.295Z,99.90
2022-09-12T15:08:30.900Z,99.90
2022-09-12T15:10:58.447Z,99.90
2022-09-12T15:13:26.691Z,99.90
2022-09-12T15:15:58.440Z,99.90
2022-09-12T15:18:27.268Z,99.90
2022-09-12T15:21:02.100Z,99.90
2022-09-12T15:23:36.116Z,99.90
2022-09-12T15:26:03.718Z,99.90
2022-09-12T15:28:31.363Z,99.90
2022-09-12T15:31:03.410Z,99.90
2022-09-12T15:33:30.293Z,99.90
2022-09-12T15:35:57.081Z,99.90
2022-09-12T15:38:26.479Z,99.90
2022-09-12T15:40:54.055Z,99.90
2022-09-12T15:43:22.293Z,99.90
2022-09-12T15:45:51.457Z,99.90
2022-09-12T15:48:19.141Z,99.90
2022-09-12T15:50:45.920Z,99.90
2022-09-12T15:53:15.943Z,99.90
2022-09-12T15:55:42.930Z,99.90
2022-09-12T15:58:09.793Z,99.90
2022-09-12T16:00:36.825Z,99.90
2022-09-12T16:03:04.031Z,99.90
2022-09-12T16:05:30.921Z,99.90
2022-09-12T16:07:58.023Z,99.90
2022-09-12T16:10:28.020Z,99.90
2022-09-12T16:12:54.941Z,99.90
2022-09-12T16:15:24.279Z,99.90
2022-09-12T16:17:51.567Z,99.90
2022-09-12T16:20:19.302Z,99.90
2022-09-12T16:22:46.294Z,99.90
2022-09-12T16:25:13.059Z,99.90
2022-09-12T16:27:39.923Z,99.90
2022-09-12T16:30:07.778Z,99.90
2022-09-12T16:32:34.771Z,99.90
2022-09-12T16:35:01.993Z,99.90
2022-09-12T16:37:28.918Z,99.90
2022-09-12T16:39:55.903Z,99.90
2022-09-12T16:42:23.042Z,99.90
2022-09-12T16:44:49.882Z,99.90
2022-09-12T16:47:16.762Z,99.90
2022-09-12T16:49:43.543Z,99.90
2022-09-12T16:52:10.939Z,99.90
2022-09-12T16:54:37.859Z,99.90
2022-09-12T16:57:05.313Z,99.90
2022-09-12T16:59:32.719Z,99.90
2022-09-12T17:01:59.766Z,99.90
2022-09-12T17:04:26.701Z,99.90
2022-09-12T17:06:53.629Z,99.90
2022-09-12T17:09:21.840Z,99.90
2022-09-12T17:11:49.706Z,99.90
2022-09-12T17:14:16.900Z,99.90
2022-09-12T17:16:50.849Z,99.90
2022-09-12T17:19:22.249Z,99.90
2022-09-12T17:21:50.200Z,99.90
2022-09-12T17:24:17.596Z,99.90
2022-09-12T17:26:44.797Z,99.90
2022-09-12T17:29:15.813Z,99.90
2022-09-12T17:31:43.968Z,99.90
2022-09-12T17:34:14.482Z,99.90
2022-09-12T17:36:44.460Z,99.90
2022-09-12T17:39:12.458Z,99.90
2022-09-12T17:41:41.731Z,99.90
2022-09-12T17:44:11.408Z,99.90
2022-09-12T17:46:38.888Z,99.90
2022-09-12T17:49:08.407Z,99.90
2022-09-12T17:51:35.355Z,99.90
2022-09-12T17:54:15.679Z,99.90
2022-09-12T17:56:43.485Z,99.90
2022-09-12T17:59:14.662Z,1.00
2022-09-12T18:02:00.260Z,1.00
2022-09-12T18:04:27.744Z,1.00
2022-09-12T18:06:54.777Z,1.00
2022-09-12T18:09:23.472Z,1.00
2022-09-12T18:11:51.004Z,1.00
2022-09-12T18:14:18.499Z,1.00
2022-09-12T18:16:46.379Z,1.00
2022-09-12T18:19:14.256Z,1.00
2022-09-12T18:21:41.862Z,1.00
2022-09-12T18:24:09.729Z,1.00
2022-09-12T18:26:37.064Z,1.00
2022-09-12T18:29:03.993Z,1.00
2022-09-12T18:31:31.217Z,1.00
2022-09-12T18:34:00.404Z,1.00
2022-09-12T18:36:27.789Z,1.00
2022-09-12T18:38:55.270Z,1.00
2022-09-12T18:41:25.255Z,1.00
2022-09-12T18:43:56.534Z,1.00
2022-09-12T18:46:24.099Z,1.00
2022-09-12T18:48:51.390Z,1.00
2022-09-12T18:51:20.537Z,1.00
2022-09-12T18:53:54.949Z,1.00
2022-09-12T18:56:23.820Z,1.00
2022-09-12T18:58:52.713Z,1.00
2022-09-12T19:01:23.855Z,1.00
2022-09-12T19:03:51.299Z,1.00
2022-09-12T19:06:20.208Z,1.00
2022-09-12T19:08:48.022Z,1.00
2022-09-12T19:11:18.162Z,1.00
2022-09-12T19:13:46.873Z,1.00
2022-09-12T19:16:16.814Z,1.00
2022-09-12T19:18:43.734Z,1.00
2022-09-12T19:21:18.148Z,1.00
2022-09-12T19:23:45.288Z,1.00
2022-09-12T19:26:13.985Z,1.00
2022-09-12T19:28:41.420Z,1.00
2022-09-12T19:31:10.503Z,1.00
2022-09-12T19:33:37.857Z,1.00
2022-09-12T19:36:13.864Z,1.00
2022-09-12T19:38:44.291Z,1.00
2022-09-12T19:41:15.330Z,1.00
2022-09-12T19:43:42.500Z,1.00
2022-09-12T19:46:15.795Z,1.00
2022-09-12T19:48:42.646Z,1.00
2022-09-12T19:51:09.406Z,1.00
2022-09-12T19:53:38.256Z,1.00
2022-09-12T19:56:05.977Z,1.00
2022-09-12T19:58:36.872Z,1.00
2022-09-12T20:01:13.129Z,1.00
2022-09-12T20:03:40.139Z,1.00
2022-09-12T20:06:09.393Z,1.00
2022-09-12T20:08:42.194Z,1.00
2022-09-12T20:11:10.789Z,1.00
2022-09-12T20:13:37.799Z,1.00
2022-09-12T20:16:20.343Z,1.00
2022-09-12T20:18:49.519Z,1.00
2022-09-12T20:21:18.559Z,1.00
2022-09-12T20:23:46.403Z,1.00
2022-09-12T20:26:13.781Z,1.00
2022-09-12T20:28:41.731Z,1.00
2022-09-12T20:31:12.178Z,23.90
2022-09-12T20:33:39.128Z,56.50
2022-09-12T20:36:17.642Z,11.60
2022-09-12T20:38:52.519Z,74.70
2022-09-12T20:41:20.634Z,99.90
2022-09-12T20:43:51.105Z,57.80
2022-09-12T20:46:21.603Z,37.80
2022-09-12T20:48:49.822Z,78.90
2022-09-12T20:51:16.946Z,68.60
2022-09-12T20:53:43.835Z,99.90
2022-09-12T20:56:10.842Z,99.90
2022-09-12T20:58:41.807Z,99.90
2022-09-12T21:01:11.509Z,99.90
2022-09-12T21:03:39.100Z,99.90
2022-09-12T21:06:07.004Z,99.90
2022-09-12T21:08:34.438Z,99.90
2022-09-12T21:11:01.440Z,55.40
2022-09-12T21:13:28.570Z,29.50
2022-09-12T21:16:04.360Z,37.30
2022-09-12T21:18:32.121Z,30.60
2022-09-12T21:20:59.030Z,95.80
2022-09-12T21:23:27.405Z,99.90
2022-09-12T21:25:54.506Z,99.90
2022-09-12T21:28:21.576Z,99.90
2022-09-12T21:30:48.867Z,99.90
2022-09-12T21:33:15.696Z,99.90
2022-09-12T21:35:42.458Z,99.90
2022-09-12T21:38:09.459Z,99.90
2022-09-12T21:40:36.248Z,99.90
2022-09-12T21:43:03.786Z,99.90
2022-09-12T21:45:30.551Z,99.90
2022-09-12T21:47:57.617Z,99.90
2022-09-12T21:50:25.030Z,99.90
2022-09-12T21:52:51.856Z,99.90
2022-09-12T21:55:18.880Z,99.90
2022-09-12T21:57:45.682Z,99.90
2022-09-12T22:00:18.031Z,99.90
2022-09-12T22:02:45.247Z,99.90
2022-09-12T22:05:12.335Z,99.90
2022-09-12T22:07:39.175Z,99.90
2022-09-12T22:10:06.360Z,99.90
2022-09-12T22:12:33.974Z,99.90
2022-09-12T22:15:12.837Z,99.90
2022-09-12T22:17:47.562Z,99.90
2022-09-12T22:20:14.360Z,99.90
2022-09-12T22:23:13.448Z,99.90
2022-09-12T22:25:40.452Z,99.90
2022-09-12T22:28:07.308Z,99.90
2022-09-12T22:30:34.546Z,99.90
2022-09-12T22:33:01.391Z,99.90
2022-09-12T22:35:28.309Z,99.90
2022-09-12T22:37:55.028Z,99.90
2022-09-12T22:40:22.113Z,99.90
2022-09-12T22:42:52.332Z,99.90
2022-09-12T22:45:19.910Z,99.90
2022-09-12T22:47:46.720Z,99.90
2022-09-12T22:50:13.834Z,99.90
2022-09-12T22:52:40.631Z,99.90
2022-09-12T22:55:07.815Z,99.90
2022-09-12T22:57:34.801Z,99.90
2022-09-12T23:00:02.189Z,99.90
2022-09-12T23:02:31.563Z,99.90
2022-09-12T23:04:58.899Z,99.90
2022-09-12T23:07:26.222Z,99.90
2022-09-12T23:09:52.997Z,99.90
2022-09-12T23:12:19.952Z,99.90
2022-09-12T23:14:47.523Z,99.90
2022-09-12T23:17:14.340Z,99.90
2022-09-12T23:19:44.359Z,99.90
2022-09-12T23:22:11.122Z,99.90
2022-09-12T23:24:38.324Z,99.90
2022-09-12T23:27:06.250Z,99.90
2022-09-12T23:29:35.353Z,99.90
2022-09-12T23:32:03.455Z,99.90
2022-09-12T23:34:30.967Z,99.90
2022-09-12T23:36:57.805Z,99.90
2022-09-12T23:39:24.662Z,99.90
2022-09-12T23:41:52.088Z,99.90
2022-09-12T23:44:18.847Z,99.90
2022-09-12T23:46:45.639Z,99.90
2022-09-12T23:49:12.462Z,99.90
2022-09-12T23:51:39.669Z,99.90
2022-09-12T23:54:06.397Z,99.90
2022-09-12T23:56:33.305Z,1.00
2022-09-12T23:59:00.247Z,1.00
